Terminal Aerodrome Forecast
Issued by NWS

Current Version | Previous Version | Graphics & Text | Print | Product List | Glossary On
Versions: 1 2 3 4 5 6 7 8 9 10 11 12 13 14 15 16 17 18 19 20 21
061
FTUS41 KILN 141130
TAFLUK
TAF
KLUK 141130Z 1412/1512 00000KT 1/2SM FG SCT002 SCT090
     FM141300 VRB03KT P6SM SCT090
     FM141600 18008KT P6SM SCT090
     FM142300 18004KT P6SM SCT040 BKN100
     FM150700 19012KT P6SM BKN040 WS020/23040KT=

USA.gov is the U.S. government's official web portal to all federal, state and local government web resources and services.